Marinicki — 9HWU9 — position and weather

sailwx.info

Track history (hours):
 
Tides and Currents Weather Stations Pressure Air Temp Water Temp Dewpoint Dewpoint Depression Visibility Wind Speed Wind Dir Waves Ship Positions

Marinicki

Last reported at 2014-Dec-20 01:33 UTC. Time now 2014-Dec-20 01:38 UTC.
Position N 36°50' W 029°12'.

Length 218 m; draft 14 m.

Type: Ship. MMSI: 249650000.

Date/timePositionNaut miles runAvg speedWind from/ knotsBaromVisibWave heightAir tempDewpointWater temp
2014-Dec-20 01:33N 36°50' W 029°12'1110.5
2014-Dec-20 00:32N 36°50' W 029°25'1110.8
2014-Dec-19 23:31N 36°50' W 029°39'1110.9
2014-Dec-19 22:33N 36°50' W 029°52'1310.6
2014-Dec-19 21:22N 36°50' W 030°08'1110.5
2014-Dec-19 20:18N 36°50' W 030°22'910.7
2014-Dec-19 19:26N 36°50' W 030°33'2110.7
2014-Dec-19 17:29N 36°50' W 030°59'1410.5
2014-Dec-19 16:11N 36°50' W 031°16'710.4
2014-Dec-19 15:33N 36°50' W 031°25'1110.4
2014-Dec-19 14:31N 36°50' W 031°38'1110.2
2014-Dec-19 13:25N 36°50' W 031°52'1410.6
2014-Dec-19 12:09N 36°50' W 032°09'  
2014-Dec-10 14:34N 38°01' W 076°13'5012.4
2014-Dec-10 10:34N 38°50' W 076°24'1111.0
2014-Dec-10 09:34N 39°01' W 076°23'8 7.6
2014-Dec-10 08:34N 39°08' W 076°24'7 7.3
2014-Dec-10 07:34N 39°13' W 076°32'3 3.1
2014-Dec-10 06:33N 39°15' W 076°34'0 0.0
2014-Dec-10 05:34N 39°15' W 076°34'0 0.0
2014-Dec-10 04:34N 39°15' W 076°34'0 0.0
2014-Dec-10 03:34N 39°15' W 076°34'0 0.0
2014-Dec-10 02:34N 39°15' W 076°34'0 0.0
2014-Dec-10 01:34N 39°15' W 076°34'  
Track history (hours):
 
Tides and Currents Weather Stations Pressure Air Temp Water Temp Dewpoint Dewpoint Depression Visibility Wind Speed Wind Dir Waves Ship Positions

Marinicki

Last reported at 2014-Dec-20 01:33 UTC. Time now 2014-Dec-20 01:38 UTC.
Position N 36°50' W 029°12'.

Length 218 m; draft 14 m.

Type: Ship. MMSI: 249650000.

Date/timePositionNaut miles runAvg speedWind from/ knotsBaromVisibWave heightAir tempDewpointWater temp
2014-Dec-20 01:33N 36°50' W 029°12'1110.5
2014-Dec-20 00:32N 36°50' W 029°25'1110.8
2014-Dec-19 23:31N 36°50' W 029°39'1110.9
2014-Dec-19 22:33N 36°50' W 029°52'1310.6
2014-Dec-19 21:22N 36°50' W 030°08'1110.5
2014-Dec-19 20:18N 36°50' W 030°22'910.7
2014-Dec-19 19:26N 36°50' W 030°33'2110.7
2014-Dec-19 17:29N 36°50' W 030°59'1410.5
2014-Dec-19 16:11N 36°50' W 031°16'710.4
2014-Dec-19 15:33N 36°50' W 031°25'1110.4
2014-Dec-19 14:31N 36°50' W 031°38'1110.2
2014-Dec-19 13:25N 36°50' W 031°52'1410.6
2014-Dec-19 12:09N 36°50' W 032°09'  
2014-Dec-10 14:34N 38°01' W 076°13'5012.4
2014-Dec-10 10:34N 38°50' W 076°24'1111.0
2014-Dec-10 09:34N 39°01' W 076°23'8 7.6
2014-Dec-10 08:34N 39°08' W 076°24'7 7.3
2014-Dec-10 07:34N 39°13' W 076°32'3 3.1
2014-Dec-10 06:33N 39°15' W 076°34'0 0.0
2014-Dec-10 05:34N 39°15' W 076°34'0 0.0
2014-Dec-10 04:34N 39°15' W 076°34'0 0.0
2014-Dec-10 03:34N 39°15' W 076°34'0 0.0
2014-Dec-10 02:34N 39°15' W 076°34'0 0.0
2014-Dec-10 01:34N 39°15' W 076°34'  

Dump ship's entire track history